Time;durP1;ratioP1;P1;durP2;ratioP2;P2;SDS_P1;SDS_P2;PMS_P1;PMS_P2;Temp;Humidity;BMP_temperature;BMP_pressure;BME280_temperature;BME280_humidity;BME280_pressure;Samples;Min_cycle;Max_cycle;Signal;HPM_P1;HPM_P2
2023/05/25 00:02:17;;;;;;;3.20;1.13;;;10.00;77.30;;;;;;5122650;27;21055;-69
2023/05/25 00:04:47;;;;;;;1.47;1.17;;;10.00;77.20;;;;;;5120749;27;21189;-69
2023/05/25 00:07:14;;;;;;;2.10;1.80;;;10.00;77.00;;;;;;5119159;27;20654;-69
2023/05/25 00:09:43;;;;;;;2.77;1.53;;;9.90;78.50;;;;;;5119620;27;20626;-69
2023/05/25 00:12:10;;;;;;;0.93;0.93;;;9.90;78.30;;;;;;5121886;27;20710;-69
2023/05/25 00:14:37;;;;;;;2.33;1.63;;;10.00;76.90;;;;;;5122702;27;20727;-69
2023/05/25 00:17:04;;;;;;;2.33;0.97;;;10.00;76.90;;;;;;5110224;27;20653;-69
2023/05/25 00:19:32;;;;;;;4.03;1.67;;;10.00;77.40;;;;;;5118432;27;20614;-69
2023/05/25 00:22:01;;;;;;;2.60;2.10;;;9.90;78.90;;;;;;5120520;27;20661;-68
2023/05/25 00:24:28;;;;;;;1.00;0.90;;;9.80;78.50;;;;;;5121828;27;20651;-68
2023/05/25 00:26:57;;;;;;;1.60;1.23;;;9.80;79.90;;;;;;5121517;27;21259;-68
2023/05/25 00:29:24;;;;;;;1.63;1.50;;;9.80;80.50;;;;;;5118379;27;20981;-69
2023/05/25 00:31:51;;;;;;;2.70;1.27;;;9.80;80.70;;;;;;5118479;27;20764;-69
2023/05/25 00:34:18;;;;;;;4.83;1.90;;;9.90;80.30;;;;;;5121495;27;20626;-68
2023/05/25 00:36:47;;;;;;;1.63;1.50;;;9.80;80.10;;;;;;5122210;27;20650;-68
2023/05/25 00:39:14;;;;;;;2.37;1.10;;;9.80;80.70;;;;;;5119898;27;20624;-69
2023/05/25 00:41:43;;;;;;;1.80;1.30;;;9.80;82.20;;;;;;5119990;27;21146;-68
2023/05/25 00:44:13;;;;;;;2.87;0.97;;;9.90;81.70;;;;;;5121522;27;20709;-69
2023/05/25 00:46:47;;;;;;;1.17;1.07;;;9.90;80.90;;;;;;5118536;27;20652;-69
2023/05/25 00:49:14;;;;;;;0.80;0.80;;;9.90;81.60;;;;;;5118443;27;21186;-68
2023/05/25 00:51:45;;;;;;;3.63;1.87;;;10.00;80.80;;;;;;5119896;27;20645;-68
2023/05/25 00:54:13;;;;;;;0.60;0.60;;;10.10;80.40;;;;;;5121990;27;20621;-68
2023/05/25 00:56:42;;;;;;;1.50;1.40;;;10.20;79.60;;;;;;5118653;27;20673;-68
2023/05/25 00:59:14;;;;;;;1.63;1.37;;;10.20;79.80;;;;;;5124678;27;20933;-69
2023/05/25 01:01:43;;;;;;;1.53;1.43;;;10.10;80.20;;;;;;5117454;27;21249;-69
2023/05/25 01:04:13;;;;;;;1.53;1.43;;;10.10;79.30;;;;;;5117844;27;21226;-68
2023/05/25 01:06:46;;;;;;;1.30;1.20;;;10.00;78.90;;;;;;5118500;27;21218;-69
2023/05/25 01:09:17;;;;;;;2.90;1.60;;;10.00;79.00;;;;;;5121437;27;20617;-69
2023/05/25 01:11:48;;;;;;;1.63;1.27;;;10.00;78.40;;;;;;5119918;27;21095;-68
2023/05/25 01:14:20;;;;;;;2.10;1.90;;;10.00;77.90;;;;;;5118065;27;21042;-69
2023/05/25 01:16:48;;;;;;;2.37;1.37;;;9.90;80.10;;;;;;5118046;27;20649;-68
2023/05/25 01:19:17;;;;;;;2.30;1.50;;;9.90;79.90;;;;;;5120981;27;20630;-69
2023/05/25 01:21:50;;;;;;;4.40;1.67;;;9.90;80.40;;;;;;5121019;27;20649;-68
2023/05/25 01:24:22;;;;;;;1.30;1.20;;;9.80;79.60;;;;;;5109842;27;20768;-68
2023/05/25 01:26:57;;;;;;;2.10;1.70;;;9.60;81.10;;;;;;5117547;27;20675;-69
2023/05/25 01:29:27;;;;;;;1.30;1.20;;;9.50;81.40;;;;;;5109379;27;20652;-69
2023/05/25 01:31:57;;;;;;;7.87;1.93;;;9.60;82.20;;;;;;5117031;27;21048;-69
2023/05/25 01:34:26;;;;;;;1.33;1.23;;;9.60;82.70;;;;;;5109832;27;20622;-68
2023/05/25 01:36:55;;;;;;;1.33;1.10;;;9.50;82.50;;;;;;5117187;27;20646;-69
2023/05/25 01:39:22;;;;;;;1.80;1.70;;;9.50;83.30;;;;;;5119628;27;20683;-69
2023/05/25 01:41:49;;;;;;;1.07;0.97;;;9.40;83.70;;;;;;5119354;27;20668;-69
2023/05/25 01:44:17;;;;;;;4.33;1.23;;;9.50;84.00;;;;;;5119308;27;20661;-68
2023/05/25 01:46:44;;;;;;;2.60;1.80;;;9.40;83.90;;;;;;5117732;27;20648;-68
2023/05/25 01:49:21;;;;;;;2.00;1.67;;;9.40;83.00;;;;;;5117558;27;20621;-68
2023/05/25 01:52:00;;;;;;;2.60;1.67;;;9.30;83.40;;;;;;5109133;27;21114;-68
2023/05/25 01:54:35;;;;;;;1.57;1.07;;;9.20;83.40;;;;;;5117463;27;20614;-68
2023/05/25 01:57:08;;;;;;;1.60;1.20;;;9.20;84.40;;;;;;5112499;27;20653;-68
2023/05/25 01:59:37;;;;;;;2.10;1.50;;;9.20;84.40;;;;;;5118256;27;20724;-69
2023/05/25 02:02:06;;;;;;;1.30;1.20;;;9.10;84.10;;;;;;5120247;27;20657;-69
2023/05/25 02:04:34;;;;;;;1.67;1.57;;;9.10;84.10;;;;;;5119116;27;20669;-68
2023/05/25 02:07:05;;;;;;;3.30;1.67;;;9.10;85.10;;;;;;5117160;27;20658;-69
2023/05/25 02:09:33;;;;;;;1.73;1.63;;;9.10;84.90;;;;;;5116451;27;20686;-69
2023/05/25 02:12:00;;;;;;;8.13;1.70;;;9.00;85.10;;;;;;5108057;27;21017;-68
2023/05/25 02:14:27;;;;;;;1.20;1.10;;;8.80;85.90;;;;;;5117286;27;20754;-68
2023/05/25 02:16:56;;;;;;;1.53;1.43;;;8.90;87.10;;;;;;5118416;27;20638;-69
2023/05/25 02:19:23;;;;;;;2.13;1.80;;;8.90;85.80;;;;;;5119122;27;20628;-69
2023/05/25 02:21:50;;;;;;;2.03;1.33;;;8.90;87.00;;;;;;5119048;27;20650;-69
2023/05/25 02:24:18;;;;;;;4.33;2.90;;;8.90;87.50;;;;;;5116698;27;21248;-69
2023/05/25 02:26:45;;;;;;;1.50;1.40;;;8.90;87.70;;;;;;5116626;27;20631;-69
2023/05/25 02:29:12;;;;;;;6.53;1.77;;;8.70;87.80;;;;;;5119647;27;20997;-69
2023/05/25 02:31:39;;;;;;;5.10;1.70;;;8.60;88.00;;;;;;5118953;27;20697;-69
2023/05/25 02:34:07;;;;;;;1.50;1.40;;;8.50;89.00;;;;;;5118200;27;20625;-68
2023/05/25 02:36:36;;;;;;;4.30;2.07;;;8.60;89.70;;;;;;5116655;27;20667;-68
2023/05/25 02:39:03;;;;;;;2.00;1.73;;;8.50;89.90;;;;;;5116681;27;20656;-69
2023/05/25 02:41:32;;;;;;;4.87;1.97;;;8.50;89.90;;;;;;5108751;27;20660;-68
2023/05/25 02:44:00;;;;;;;1.70;1.20;;;8.30;90.10;;;;;;5119603;27;20687;-68
2023/05/25 02:46:27;;;;;;;1.77;1.40;;;8.30;90.40;;;;;;5116599;28;21259;-69
2023/05/25 02:48:54;;;;;;;7.70;1.80;;;8.50;90.30;;;;;;5116079;28;20614;-68
2023/05/25 02:51:22;;;;;;;1.57;1.47;;;8.60;90.30;;;;;;5115718;28;21229;-69
2023/05/25 02:53:49;;;;;;;1.27;1.17;;;8.70;90.10;;;;;;5119493;28;21044;-69
2023/05/25 02:56:16;;;;;;;1.70;1.20;;;8.70;89.80;;;;;;5119394;28;21308;-68
2023/05/25 02:58:44;;;;;;;3.57;1.73;;;8.70;89.80;;;;;;5119188;28;20620;-68
2023/05/25 03:01:17;;;;;;;1.80;1.70;;;8.60;90.20;;;;;;5118587;27;21170;-68
2023/05/25 03:03:45;;;;;;;2.27;2.07;;;8.40;90.20;;;;;;5117074;28;20661;-68
2023/05/25 03:06:12;;;;;;;1.63;1.53;;;8.30;90.00;;;;;;5120475;27;20653;-68
2023/05/25 03:08:41;;;;;;;2.43;2.27;;;8.30;90.40;;;;;;5121517;27;20764;-68
2023/05/25 03:11:08;;;;;;;6.50;2.33;;;8.10;90.40;;;;;;5116601;27;20734;-69
2023/05/25 03:13:36;;;;;;;1.55;1.45;;;8.10;91.00;;;;;;5119630;27;20632;-68
2023/05/25 03:16:05;;;;;;;2.47;1.40;;;8.00;91.60;;;;;;5112068;27;20235;-68
2023/05/25 03:18:32;;;;;;;2.20;1.63;;;8.10;91.80;;;;;;5120115;27;21208;-68
2023/05/25 03:20:58;;;;;;;1.73;1.40;;;8.10;92.00;;;;;;5121652;27;20736;-69
2023/05/25 03:23:27;;;;;;;4.60;2.33;;;8.20;91.70;;;;;;5123473;27;20647;-69
2023/05/25 03:25:55;;;;;;;1.60;1.40;;;8.40;91.50;;;;;;5121680;27;20235;-68
2023/05/25 03:28:22;;;;;;;2.60;1.80;;;8.50;90.80;;;;;;5120122;27;21181;-68
2023/05/25 03:30:49;;;;;;;2.37;1.63;;;8.50;90.60;;;;;;5119350;27;20998;-69
2023/05/25 03:33:19;;;;;;;2.63;1.97;;;8.40;90.80;;;;;;5122774;27;20728;-68
2023/05/25 03:35:47;;;;;;;2.77;2.23;;;8.20;91.20;;;;;;5123027;27;20677;-68
2023/05/25 03:38:14;;;;;;;6.30;1.97;;;8.10;91.70;;;;;;5121461;27;20623;-69
2023/05/25 03:40:41;;;;;;;8.67;2.70;;;8.30;91.80;;;;;;5118510;27;20640;-69
2023/05/25 03:43:08;;;;;;;2.13;1.90;;;8.20;92.20;;;;;;5119669;27;20629;-68
2023/05/25 03:45:34;;;;;;;1.93;1.83;;;8.20;92.00;;;;;;5123200;27;20644;-68
2023/05/25 03:48:01;;;;;;;2.10;1.93;;;8.20;92.60;;;;;;5122785;27;20628;-69
2023/05/25 03:50:29;;;;;;;2.40;1.63;;;8.20;92.20;;;;;;5119142;27;20652;-68
2023/05/25 03:52:56;;;;;;;2.93;1.87;;;8.30;92.40;;;;;;5119367;27;20649;-68
2023/05/25 03:55:23;;;;;;;1.93;1.60;;;8.40;91.50;;;;;;5120321;27;20643;-69
2023/05/25 03:57:50;;;;;;;1.47;1.20;;;8.50;91.90;;;;;;5122504;27;21146;-69
2023/05/25 04:00:17;;;;;;;2.70;1.73;;;8.50;91.40;;;;;;5121985;27;20657;-69
2023/05/25 04:02:44;;;;;;;3.47;2.13;;;8.60;91.10;;;;;;5119754;27;20662;-69
2023/05/25 04:05:11;;;;;;;2.07;1.60;;;8.60;91.10;;;;;;5118902;27;20700;-68
2023/05/25 04:07:39;;;;;;;1.33;1.13;;;8.60;91.20;;;;;;5119895;27;20629;-68
2023/05/25 04:10:07;;;;;;;1.97;1.17;;;8.50;91.60;;;;;;5122165;27;20622;-68
2023/05/25 04:12:35;;;;;;;2.43;1.50;;;8.50;91.90;;;;;;5122377;27;20632;-68
2023/05/25 04:15:02;;;;;;;1.63;1.50;;;8.50;92.00;;;;;;5111032;27;20627;-68
2023/05/25 04:17:29;;;;;;;3.87;1.77;;;8.60;91.60;;;;;;5118135;27;20627;-69
2023/05/25 04:19:56;;;;;;;3.50;1.50;;;8.70;91.50;;;;;;5120272;27;20631;-69
2023/05/25 04:22:23;;;;;;;11.83;3.03;;;8.70;92.00;;;;;;5121476;27;20590;-68
2023/05/25 04:24:51;;;;;;;1.60;1.50;;;8.80;91.60;;;;;;5121961;27;20660;-68
2023/05/25 04:27:19;;;;;;;2.63;2.20;;;8.80;91.60;;;;;;5118975;27;20545;-68
2023/05/25 04:29:45;;;;;;;2.63;2.40;;;8.90;91.30;;;;;;5118047;27;20631;-69
2023/05/25 04:32:16;;;;;;;2.43;1.83;;;9.00;91.40;;;;;;5121189;27;20656;-69
2023/05/25 04:34:43;;;;;;;1.70;1.50;;;9.00;91.50;;;;;;5121326;27;20629;-68
2023/05/25 04:37:10;;;;;;;4.23;2.17;;;8.90;91.50;;;;;;5120752;27;20992;-69
2023/05/25 04:39:37;;;;;;;2.00;1.90;;;8.90;91.80;;;;;;5118242;27;21382;-68
2023/05/25 04:42:06;;;;;;;5.53;1.10;;;8.90;91.70;;;;;;5124544;27;20717;-68
2023/05/25 04:44:33;;;;;;;2.07;1.87;;;8.90;91.90;;;;;;5110363;27;21044;-68
2023/05/25 04:47:01;;;;;;;3.53;1.33;;;9.00;91.90;;;;;;5118640;27;20760;-69
2023/05/25 04:49:28;;;;;;;2.87;1.50;;;9.00;91.80;;;;;;5119042;27;20695;-69
2023/05/25 04:51:55;;;;;;;2.50;2.30;;;9.10;91.80;;;;;;5121625;27;20739;-69
2023/05/25 04:54:22;;;;;;;2.93;2.10;;;9.20;91.40;;;;;;5120698;27;20997;-68
2023/05/25 04:56:49;;;;;;;6.53;2.17;;;9.10;91.50;;;;;;5118558;27;20637;-69
2023/05/25 04:59:17;;;;;;;2.07;1.17;;;9.10;91.50;;;;;;5118175;27;20674;-69
2023/05/25 05:01:44;;;;;;;2.67;1.87;;;9.20;91.70;;;;;;5120503;27;20671;-69
2023/05/25 05:04:11;;;;;;;12.00;2.23;;;9.30;91.50;;;;;;5121486;27;20665;-69
2023/05/25 05:06:38;;;;;;;2.90;1.80;;;9.60;91.50;;;;;;5119735;27;20658;-69
2023/05/25 05:09:05;;;;;;;3.77;1.30;;;9.50;91.00;;;;;;5118430;27;20626;-69
2023/05/25 05:11:32;;;;;;;3.00;1.80;;;9.70;91.20;;;;;;5117336;27;20636;-69
2023/05/25 05:13:59;;;;;;;23.03;2.93;;;9.60;91.00;;;;;;5109322;27;21245;-69
2023/05/25 05:16:32;;;;;;;1.53;1.43;;;9.60;91.10;;;;;;5117192;27;20653;-69
2023/05/25 05:18:59;;;;;;;3.80;2.60;;;9.60;90.90;;;;;;5120506;27;20618;-68
2023/05/25 05:21:25;;;;;;;3.27;1.53;;;9.70;90.90;;;;;;5120557;27;20671;-69
2023/05/25 05:23:52;;;;;;;2.93;2.73;;;9.80;90.90;;;;;;5119991;27;21006;-69
2023/05/25 05:26:20;;;;;;;1.57;1.47;;;9.90;90.80;;;;;;5117663;27;20653;-69
2023/05/25 05:28:46;;;;;;;5.93;1.97;;;9.90;90.90;;;;;;5117791;27;20613;-69
2023/05/25 05:31:16;;;;;;;2.30;1.50;;;9.90;90.90;;;;;;5119531;27;21032;-69
2023/05/25 05:33:44;;;;;;;2.00;1.90;;;9.90;90.90;;;;;;5121177;27;21098;-69
2023/05/25 05:36:11;;;;;;;5.37;2.10;;;10.10;89.60;;;;;;5119081;27;20648;-69
2023/05/25 05:38:39;;;;;;;2.27;1.80;;;10.10;90.00;;;;;;5117195;27;20626;-69
2023/05/25 05:41:12;;;;;;;2.40;2.20;;;10.20;90.10;;;;;;5116924;27;20646;-69
2023/05/25 05:43:40;;;;;;;2.97;2.70;;;10.30;89.20;;;;;;5120175;27;20651;-69
2023/05/25 05:46:07;;;;;;;2.90;2.20;;;10.50;89.60;;;;;;5120782;27;20650;-69
2023/05/25 05:48:34;;;;;;;2.77;2.47;;;10.30;88.70;;;;;;5117174;27;20609;-70
2023/05/25 05:51:03;;;;;;;2.27;2.07;;;10.30;89.30;;;;;;5115525;27;20653;-69
2023/05/25 05:53:30;;;;;;;2.17;2.00;;;10.40;89.20;;;;;;5119233;27;20982;-69
2023/05/25 05:55:58;;;;;;;6.00;2.67;;;10.50;89.90;;;;;;5120093;27;20641;-68
2023/05/25 05:58:26;;;;;;;1.90;1.50;;;10.50;89.00;;;;;;5119539;27;20644;-69
2023/05/25 06:00:53;;;;;;;3.90;2.33;;;10.50;88.80;;;;;;5116739;27;20645;-69
2023/05/25 06:03:20;;;;;;;2.53;1.80;;;10.60;88.90;;;;;;5117218;27;21251;-69
2023/05/25 06:05:47;;;;;;;5.83;2.10;;;10.50;88.50;;;;;;5119597;27;20676;-69
2023/05/25 06:08:15;;;;;;;4.80;2.50;;;10.40;89.30;;;;;;5120354;27;20693;-68
2023/05/25 06:10:42;;;;;;;2.93;1.90;;;10.50;89.60;;;;;;5117575;27;20654;-68
2023/05/25 06:13:08;;;;;;;7.07;2.50;;;10.70;89.70;;;;;;5116766;27;20620;-68
2023/05/25 06:15:35;;;;;;;3.43;2.50;;;10.90;88.90;;;;;;5116751;27;21287;-69
2023/05/25 06:18:02;;;;;;;5.23;2.37;;;11.00;87.80;;;;;;5108713;27;21058;-69
2023/05/25 06:20:29;;;;;;;1.83;1.70;;;10.90;88.80;;;;;;5116072;27;20633;-69
2023/05/25 06:22:56;;;;;;;3.30;2.57;;;11.00;89.10;;;;;;5118328;27;20974;-69
2023/05/25 06:25:24;;;;;;;9.53;1.87;;;11.00;89.40;;;;;;5119608;27;20662;-69
2023/05/25 06:27:51;;;;;;;2.73;1.87;;;11.20;89.00;;;;;;5119623;27;20623;-68
2023/05/25 06:30:18;;;;;;;4.23;2.63;;;11.20;88.50;;;;;;5115897;27;20627;-68
2023/05/25 06:32:44;;;;;;;10.13;2.73;;;11.30;88.90;;;;;;5115971;27;20633;-69
2023/05/25 06:35:18;;;;;;;2.90;2.30;;;11.30;89.40;;;;;;5106572;27;20626;-70
2023/05/25 06:37:45;;;;;;;4.40;3.00;;;11.40;90.20;;;;;;5104759;28;20983;-69
2023/05/25 06:40:12;;;;;;;4.10;2.53;;;11.70;89.40;;;;;;5113957;27;21031;-69
2023/05/25 06:42:41;;;;;;;3.00;2.50;;;11.70;87.90;;;;;;5116244;28;21131;-68
2023/05/25 06:45:08;;;;;;;7.70;2.87;;;11.70;88.50;;;;;;5116409;27;20658;-68
2023/05/25 06:47:35;;;;;;;4.07;2.87;;;12.00;86.30;;;;;;5119984;27;20971;-69
2023/05/25 06:50:03;;;;;;;3.13;2.20;;;12.10;87.20;;;;;;5117552;28;21228;-69
2023/05/25 06:52:30;;;;;;;5.33;3.03;;;12.20;87.20;;;;;;5116980;28;20625;-69
2023/05/25 06:54:57;;;;;;;3.73;3.20;;;12.20;87.30;;;;;;5116765;27;20624;-69
2023/05/25 06:57:24;;;;;;;3.97;2.17;;;12.20;86.90;;;;;;5117333;28;21162;-68
2023/05/25 06:59:52;;;;;;;3.67;2.67;;;12.50;87.50;;;;;;5119003;27;20615;-68
2023/05/25 07:02:19;;;;;;;4.80;3.20;;;12.50;85.90;;;;;;5119079;28;21227;-69
2023/05/25 07:04:46;;;;;;;4.30;2.40;;;12.50;86.10;;;;;;5115839;28;20652;-69
2023/05/25 07:07:13;;;;;;;3.77;2.37;;;12.40;86.50;;;;;;5116426;28;20752;-69
2023/05/25 07:09:40;;;;;;;4.67;2.67;;;12.50;88.10;;;;;;5117221;28;20623;-69
2023/05/25 07:12:08;;;;;;;2.90;2.57;;;12.60;87.00;;;;;;5119729;28;21041;-69
2023/05/25 07:14:35;;;;;;;5.60;2.77;;;12.70;86.60;;;;;;5119172;28;20710;-69
2023/05/25 07:17:04;;;;;;;4.77;3.13;;;12.70;87.10;;;;;;5115851;28;21002;-69
2023/05/25 07:19:30;;;;;;;2.83;1.73;;;12.70;87.00;;;;;;5115351;28;20707;-69
2023/05/25 07:21:57;;;;;;;3.77;2.73;;;12.70;88.20;;;;;;5118080;28;20644;-68
2023/05/25 07:24:24;;;;;;;2.90;2.07;;;12.80;88.00;;;;;;5119263;28;20622;-68
2023/05/25 07:26:51;;;;;;;5.90;2.83;;;12.70;87.40;;;;;;5118454;28;20990;-68
2023/05/25 07:29:17;;;;;;;4.60;2.90;;;12.80;87.40;;;;;;5115455;28;20622;-69
2023/05/25 07:31:44;;;;;;;3.20;2.80;;;13.00;87.20;;;;;;5115454;28;20659;-68
2023/05/25 07:34:13;;;;;;;4.17;2.77;;;13.00;86.80;;;;;;5118403;28;20627;-68
2023/05/25 07:36:39;;;;;;;3.80;2.90;;;13.10;86.50;;;;;;5110380;28;20641;-68
2023/05/25 07:39:07;;;;;;;2.60;2.40;;;13.10;86.80;;;;;;5110714;28;21096;-68
2023/05/25 07:41:34;;;;;;;4.63;2.50;;;13.30;87.10;;;;;;5116159;28;20715;-68
2023/05/25 07:44:01;;;;;;;5.63;2.77;;;13.40;86.70;;;;;;5109361;27;20978;-70
2023/05/25 07:46:27;;;;;;;3.40;2.40;;;13.30;86.00;;;;;;5103900;28;20676;-69
2023/05/25 07:48:58;;;;;;;5.20;2.93;;;13.40;86.20;;;;;;5109079;28;21042;-69
2023/05/25 07:51:31;;;;;;;5.70;2.50;;;13.60;85.50;;;;;;5110975;27;20644;-69
2023/05/25 07:53:58;;;;;;;4.83;2.43;;;13.70;85.40;;;;;;5122382;27;20643;-69
2023/05/25 07:56:25;;;;;;;3.43;2.63;;;13.80;86.60;;;;;;5121018;27;20652;-69
2023/05/25 07:58:52;;;;;;;3.20;2.90;;;13.90;86.50;;;;;;5118175;27;21273;-69
2023/05/25 08:01:19;;;;;;;3.67;3.10;;;14.00;86.60;;;;;;5107179;27;20990;-69
2023/05/25 08:03:46;;;;;;;5.43;2.67;;;13.90;86.90;;;;;;5120025;27;20655;-68
2023/05/25 08:06:12;;;;;;;3.50;3.07;;;13.80;86.10;;;;;;5118891;27;20675;-70
2023/05/25 08:08:40;;;;;;;4.37;3.17;;;13.80;85.80;;;;;;5121355;27;21040;-68
2023/05/25 08:11:08;;;;;;;3.60;2.50;;;14.00;87.00;;;;;;5119484;27;20648;-68
2023/05/25 08:13:35;;;;;;;3.10;2.90;;;14.10;86.30;;;;;;5121995;27;21170;-69
2023/05/25 08:16:01;;;;;;;3.70;3.33;;;14.30;87.50;;;;;;5119703;27;20654;-69
2023/05/25 08:18:30;;;;;;;3.70;2.87;;;14.50;85.90;;;;;;5119287;27;20962;-68
2023/05/25 08:20:57;;;;;;;6.70;3.57;;;14.60;86.10;;;;;;5121377;27;20651;-69
2023/05/25 08:23:24;;;;;;;6.70;3.60;;;14.40;85.90;;;;;;5122675;27;20708;-69
2023/05/25 08:25:52;;;;;;;5.10;2.60;;;14.60;84.50;;;;;;5113328;27;20676;-69
2023/05/25 08:28:19;;;;;;;3.13;2.30;;;14.80;86.00;;;;;;5121906;27;20618;-69
2023/05/25 08:30:46;;;;;;;4.73;2.70;;;15.00;86.20;;;;;;5121131;27;21013;-69
2023/05/25 08:33:13;;;;;;;2.80;2.53;;;14.90;84.00;;;;;;5119011;27;20623;-69
2023/05/25 08:35:41;;;;;;;4.90;3.00;;;14.80;85.30;;;;;;5100888;27;20761;-69
2023/05/25 08:38:08;;;;;;;3.40;3.10;;;15.00;87.20;;;;;;5110036;27;20616;-69
2023/05/25 08:40:35;;;;;;;4.70;2.87;;;15.10;85.20;;;;;;5117637;27;21244;-69
2023/05/25 08:43:03;;;;;;;4.00;3.60;;;15.20;84.30;;;;;;5110254;27;20639;-69
2023/05/25 08:45:30;;;;;;;2.63;2.43;;;15.20;85.40;;;;;;5110207;27;20759;-69
2023/05/25 08:47:59;;;;;;;3.60;2.97;;;15.50;83.80;;;;;;5118553;27;20619;-69
2023/05/25 08:50:28;;;;;;;5.70;3.00;;;15.70;84.20;;;;;;5117725;27;20646;-69
2023/05/25 08:52:57;;;;;;;3.57;2.77;;;15.70;85.20;;;;;;5118158;27;20633;-69
2023/05/25 08:55:27;;;;;;;5.07;2.80;;;15.90;84.00;;;;;;5110098;27;20654;-69
2023/05/25 08:58:00;;;;;;;3.80;2.80;;;16.00;82.60;;;;;;5116141;27;20626;-69
2023/05/25 09:00:32;;;;;;;6.10;3.23;;;16.20;82.90;;;;;;5117122;27;20652;-69
2023/05/25 09:03:06;;;;;;;2.97;2.53;;;16.10;83.70;;;;;;5122360;27;21232;-69
2023/05/25 09:05:35;;;;;;;5.30;3.23;;;16.40;82.50;;;;;;5112674;27;20689;-69
2023/05/25 09:08:05;;;;;;;3.73;2.97;;;16.30;81.70;;;;;;5123704;27;20617;-69
2023/05/25 09:10:34;;;;;;;3.43;2.87;;;16.10;84.10;;;;;;5117256;27;20647;-69
2023/05/25 09:13:01;;;;;;;5.07;2.90;;;16.20;83.60;;;;;;5111234;27;20616;-69
2023/05/25 09:15:30;;;;;;;3.47;3.13;;;16.20;83.90;;;;;;5121909;27;20651;-69
2023/05/25 09:17:57;;;;;;;3.80;3.47;;;16.20;84.20;;;;;;5119937;27;20764;-69
2023/05/25 09:20:30;;;;;;;3.40;3.10;;;16.60;83.80;;;;;;5120061;27;20652;-69
2023/05/25 09:22:57;;;;;;;5.13;3.10;;;16.90;83.00;;;;;;5116968;27;21179;-68
2023/05/25 09:25:26;;;;;;;7.70;2.93;;;17.20;81.90;;;;;;5116954;27;21266;-67
2023/05/25 09:27:55;;;;;;;5.43;3.60;;;17.30;82.70;;;;;;5117618;27;20624;-68
2023/05/25 09:30:22;;;;;;;3.73;2.90;;;17.70;81.70;;;;;;5120118;27;20634;-68
2023/05/25 09:32:50;;;;;;;3.53;2.63;;;17.50;81.10;;;;;;5119332;27;20887;-68
2023/05/25 09:35:17;;;;;;;4.00;3.43;;;17.30;81.40;;;;;;5107975;27;20620;-68
2023/05/25 09:37:45;;;;;;;4.20;3.80;;;17.50;81.50;;;;;;5112401;27;21196;-68
2023/05/25 09:40:12;;;;;;;4.37;3.30;;;17.50;79.70;;;;;;5118139;27;20685;-68
2023/05/25 09:42:39;;;;;;;4.07;3.40;;;17.50;81.30;;;;;;5121839;27;20620;-68
2023/05/25 09:45:06;;;;;;;5.00;3.87;;;17.50;79.90;;;;;;5116796;27;20620;-69
2023/05/25 09:47:35;;;;;;;4.83;4.30;;;17.60;79.30;;;;;;5121005;27;20655;-69
2023/05/25 09:50:04;;;;;;;2.90;2.70;;;17.70;79.30;;;;;;5119023;27;20630;-68
2023/05/25 09:52:31;;;;;;;3.63;3.33;;;17.80;79.60;;;;;;5116811;27;20619;-68
2023/05/25 09:54:58;;;;;;;4.40;3.23;;;18.10;79.40;;;;;;5111211;27;20628;-68
2023/05/25 09:57:27;;;;;;;4.17;3.77;;;18.30;78.40;;;;;;5118037;27;20654;-68
2023/05/25 09:59:54;;;;;;;4.43;3.77;;;18.50;78.00;;;;;;5119654;27;20640;-68
2023/05/25 10:02:21;;;;;;;4.50;2.60;;;18.90;80.50;;;;;;5120197;27;20643;-68
2023/05/25 10:04:48;;;;;;;5.67;2.87;;;18.50;79.40;;;;;;5117649;27;21046;-68
2023/05/25 10:07:17;;;;;;;3.80;3.00;;;18.90;79.40;;;;;;5116762;27;20686;-68
2023/05/25 10:09:45;;;;;;;3.77;3.47;;;19.10;77.50;;;;;;5114342;27;20628;-69
2023/05/25 10:12:14;;;;;;;3.07;2.87;;;19.20;77.90;;;;;;5116028;27;20652;-70
2023/05/25 10:14:43;;;;;;;5.20;3.13;;;19.20;77.70;;;;;;5117405;27;20620;-68
2023/05/25 10:17:14;;;;;;;7.00;4.30;;;19.10;77.30;;;;;;5120080;27;20649;-69
2023/05/25 10:19:46;;;;;;;4.40;4.00;;;19.20;77.60;;;;;;5119390;27;20619;-68
2023/05/25 10:22:20;;;;;;;2.93;2.57;;;19.40;77.90;;;;;;5116806;27;20648;-68
2023/05/25 10:24:54;;;;;;;4.63;3.43;;;19.40;74.50;;;;;;5116439;27;20620;-68
2023/05/25 10:27:24;;;;;;;3.67;3.13;;;19.30;76.90;;;;;;5120181;27;20671;-68
2023/05/25 10:29:52;;;;;;;3.20;2.90;;;19.10;77.90;;;;;;5118508;27;20714;-69
2023/05/25 10:32:19;;;;;;;3.40;2.70;;;19.20;76.40;;;;;;5116560;27;20652;-69
2023/05/25 10:34:48;;;;;;;3.53;3.27;;;19.40;76.90;;;;;;5116442;27;20727;-69
2023/05/25 10:37:18;;;;;;;4.97;4.00;;;19.70;75.70;;;;;;5118246;27;20654;-69
2023/05/25 10:39:46;;;;;;;4.97;3.10;;;20.00;76.40;;;;;;5119309;27;20615;-69
2023/05/25 10:42:13;;;;;;;5.70;3.40;;;20.00;74.90;;;;;;5118359;27;20649;-69
2023/05/25 10:44:41;;;;;;;4.17;3.13;;;20.00;73.40;;;;;;5116640;27;20707;-68
2023/05/25 10:47:09;;;;;;;4.10;3.07;;;20.00;74.40;;;;;;5116204;27;20671;-69
2023/05/25 10:49:52;;;;;;;4.13;3.00;;;20.20;72.50;;;;;;5115265;27;20722;-69
2023/05/25 10:52:21;;;;;;;3.57;3.27;;;20.30;74.70;;;;;;5118650;27;21012;-68
2023/05/25 10:54:48;;;;;;;3.70;3.30;;;20.30;75.10;;;;;;5116279;27;20628;-68
2023/05/25 10:57:19;;;;;;;3.73;2.90;;;20.10;74.00;;;;;;5116317;27;20991;-68
2023/05/25 10:59:50;;;;;;;4.03;3.27;;;20.20;71.30;;;;;;5103718;28;20618;-68
2023/05/25 11:02:17;;;;;;;4.17;2.83;;;20.10;74.50;;;;;;5119053;28;20644;-68
2023/05/25 11:04:48;;;;;;;4.30;3.20;;;20.00;74.20;;;;;;5117248;28;21040;-69
2023/05/25 11:07:15;;;;;;;3.03;2.53;;;20.30;77.00;;;;;;5116084;27;21042;-68
2023/05/25 11:09:56;;;;;;;3.50;2.80;;;20.70;75.00;;;;;;5114783;28;20622;-69
2023/05/25 11:12:22;;;;;;;3.93;2.73;;;20.90;77.20;;;;;;5111597;28;20751;-69
2023/05/25 11:15:17;;;;;;;5.40;3.83;;;20.80;74.80;;;;;;5117910;27;20638;-68
2023/05/25 11:18:09;;;;;;;4.07;3.57;;;20.50;72.70;;;;;;5118447;28;20627;-68
2023/05/25 11:20:36;;;;;;;3.70;2.70;;;20.20;72.50;;;;;;5086603;28;21126;-68
2023/05/25 11:23:24;;;;;;;3.57;2.50;;;20.20;74.80;;;;;;5115635;28;20718;-68
2023/05/25 11:25:52;;;;;;;3.13;2.83;;;20.10;76.40;;;;;;5118720;27;21017;-68
2023/05/25 11:28:22;;;;;;;4.03;2.87;;;19.80;75.00;;;;;;5123331;27;20621;-68
2023/05/25 11:30:49;;;;;;;3.80;2.97;;;20.10;73.70;;;;;;5115418;27;21208;-68
2023/05/25 11:33:20;;;;;;;3.17;2.87;;;20.30;74.90;;;;;;5122471;27;21228;-68
2023/05/25 11:35:47;;;;;;;3.30;2.97;;;20.70;73.00;;;;;;5123269;27;20651;-68
2023/05/25 11:38:14;;;;;;;3.60;2.87;;;20.70;74.40;;;;;;5120529;27;20623;-68
2023/05/25 11:40:41;;;;;;;5.87;2.53;;;20.50;72.60;;;;;;5119463;27;20725;-68
2023/05/25 11:43:11;;;;;;;2.50;2.30;;;20.40;74.30;;;;;;5119696;27;20730;-68
2023/05/25 11:45:38;;;;;;;2.70;2.50;;;20.70;72.70;;;;;;5123078;27;20686;-68
2023/05/25 11:48:05;;;;;;;3.70;2.87;;;20.90;71.80;;;;;;5122360;27;20626;-68
2023/05/25 11:50:32;;;;;;;3.60;2.93;;;20.90;71.70;;;;;;5117787;27;20654;-68
2023/05/25 11:52:59;;;;;;;7.67;3.50;;;20.90;71.20;;;;;;5118266;27;21293;-69
2023/05/25 11:55:26;;;;;;;5.00;3.00;;;20.90;71.40;;;;;;5120798;27;20648;-69
2023/05/25 11:57:57;;;;;;;3.83;3.40;;;21.30;73.10;;;;;;5122698;27;21189;-69
2023/05/25 12:00:26;;;;;;;3.70;2.93;;;21.40;71.10;;;;;;5121274;27;21023;-69
2023/05/25 12:02:53;;;;;;;3.33;3.03;;;21.30;72.40;;;;;;5119401;27;20612;-69
2023/05/25 12:05:21;;;;;;;2.83;2.63;;;20.80;71.00;;;;;;5119792;27;20727;-69
2023/05/25 12:07:48;;;;;;;2.90;2.57;;;20.50;73.00;;;;;;5121936;27;20694;-69
2023/05/25 12:10:16;;;;;;;3.00;2.70;;;20.50;74.10;;;;;;5121816;27;20654;-69
2023/05/25 12:12:43;;;;;;;6.40;3.93;;;20.60;73.80;;;;;;5107273;27;20628;-69
2023/05/25 12:15:11;;;;;;;2.93;2.70;;;20.70;73.90;;;;;;5118579;27;20633;-69
2023/05/25 12:17:41;;;;;;;3.93;3.43;;;20.80;70.80;;;;;;5122384;27;20622;-69
2023/05/25 12:20:10;;;;;;;3.40;3.10;;;20.90;70.30;;;;;;5110567;27;20620;-69
2023/05/25 12:22:37;;;;;;;3.87;2.90;;;20.80;71.60;;;;;;5119259;27;20977;-69
2023/05/25 12:25:06;;;;;;;2.97;2.77;;;20.60;72.40;;;;;;5117173;27;20638;-70
2023/05/25 12:27:33;;;;;;;3.37;3.07;;;20.70;72.80;;;;;;5113355;27;20656;-70
2023/05/25 12:30:00;;;;;;;2.80;2.60;;;20.80;74.00;;;;;;5119667;27;20620;-69
2023/05/25 12:32:27;;;;;;;3.40;3.07;;;20.90;74.10;;;;;;5122452;27;20646;-70
2023/05/25 12:35:04;;;;;;;7.00;3.40;;;21.10;72.30;;;;;;5122315;27;20664;-70
2023/05/25 12:37:31;;;;;;;3.60;2.97;;;21.30;72.90;;;;;;5111310;27;20977;-68
2023/05/25 12:39:57;;;;;;;2.83;2.63;;;21.30;72.60;;;;;;5118404;27;20822;-68
2023/05/25 12:42:26;;;;;;;3.37;2.97;;;21.60;72.30;;;;;;5118444;27;20693;-68
2023/05/25 12:44:56;;;;;;;3.60;3.30;;;21.80;70.90;;;;;;5118467;27;21184;-68
2023/05/25 12:47:26;;;;;;;3.67;3.37;;;21.90;69.80;;;;;;5120670;27;20687;-68
2023/05/25 12:49:54;;;;;;;5.70;3.33;;;21.50;74.10;;;;;;5119763;27;20691;-68
2023/05/25 12:52:36;;;;;;;3.33;2.77;;;21.90;71.40;;;;;;5120591;27;21286;-68
2023/05/25 12:55:25;;;;;;;3.23;2.57;;;22.10;69.30;;;;;;5118190;27;20715;-68
2023/05/25 12:57:53;;;;;;;3.50;2.80;;;22.20;71.90;;;;;;5111590;27;20628;-69